Time;durP1;ratioP1;P1;durP2;ratioP2;P2;SDS_P1;SDS_P2;PMS_P1;PMS_P2;Temp;Humidity;BMP_temperature;BMP_pressure;BME280_temperature;BME280_humidity;BME280_pressure;Samples;Min_cycle;Max_cycle;Signal;HPM_P1;HPM_P2
2022/09/13 00:01:36;;;;;;;;;;;;;;;22.08;54.88;100776.28;5036422;28;4119;-64
2022/09/13 00:04:03;;;;;;;;;;;;;;;22.08;54.85;100778.41;5036701;28;4282;-64
2022/09/13 00:06:29;;;;;;;;;;;;;;;22.06;54.57;100772.56;5035840;28;4123;-63
2022/09/13 00:08:56;;;;;;;;;;;;;;;22.04;54.52;100769.63;5035976;28;5184;-63
2022/09/13 00:11:24;;;;;;;;;;;;;;;22.05;54.43;100766.06;5037264;28;4202;-64
2022/09/13 00:13:50;;;;;;;;;;;;;;;22.05;54.84;100762.44;5034215;28;5214;-63
2022/09/13 00:16:17;;;;;;;;;;;;;;;22.06;54.57;100744.47;5036867;28;4015;-64
2022/09/13 00:18:43;;;;;;;;;;;;;;;22.05;54.50;100742.97;5038108;28;4169;-64
2022/09/13 00:21:11;;;;;;;;;;;;;;;22.07;54.70;100731.53;5026511;28;4078;-64
2022/09/13 00:23:37;;;;;;;;;;;;;;;22.04;54.72;100737.91;5014127;28;5429;-64
2022/09/13 00:26:07;;;;;;;;;;;;;;;22.03;54.73;100722.72;5013341;28;4219;-63
2022/09/13 00:28:34;;;;;;;;;;;;;;;22.04;54.85;100711.94;5016277;28;4164;-63
2022/09/13 00:31:04;;;;;;;;;;;;;;;22.00;54.50;100703.88;5017397;28;4328;-64
2022/09/13 00:33:30;;;;;;;;;;;;;;;22.04;54.51;100709.06;5018356;28;4225;-64
2022/09/13 00:35:57;;;;;;;;;;;;;;;22.04;54.57;100706.19;5015853;28;4220;-65
2022/09/13 00:38:23;;;;;;;;;;;;;;;22.02;54.59;100700.34;5012521;28;5524;-64
2022/09/13 00:40:49;;;;;;;;;;;;;;;22.01;54.56;100699.56;5018389;28;4004;-63
2022/09/13 00:43:19;;;;;;;;;;;;;;;22.02;54.65;100683.78;5015995;28;6271;-64
2022/09/13 00:45:45;;;;;;;;;;;;;;;22.00;54.43;100680.06;5014711;28;4296;-63
2022/09/13 00:48:15;;;;;;;;;;;;;;;22.01;54.74;100682.28;5043539;28;4177;-64
2022/09/13 00:50:46;;;;;;;;;;;;;;;22.02;54.58;100677.28;5047093;28;4142;-63
2022/09/13 00:53:17;;;;;;;;;;;;;;;22.00;54.60;100680.81;5029362;28;4200;-63
2022/09/13 00:56:00;;;;;;;;;;;;;;;22.02;54.45;100678.00;5017836;28;4268;-63
2022/09/13 00:58:28;;;;;;;;;;;;;;;21.99;54.64;100673.56;5051593;28;4192;-63
2022/09/13 01:00:54;;;;;;;;;;;;;;;21.99;54.37;100682.22;5033663;28;4138;-64
2022/09/13 01:03:21;;;;;;;;;;;;;;;21.98;54.60;100672.09;5048070;28;4090;-64
2022/09/13 01:05:49;;;;;;;;;;;;;;;21.98;54.64;100674.97;5051796;28;4403;-64
2022/09/13 01:08:21;;;;;;;;;;;;;;;21.99;54.69;100670.69;5045148;28;4247;-64
2022/09/13 01:10:49;;;;;;;;;;;;;;;21.97;54.57;100659.09;5036478;28;4318;-64
2022/09/13 01:13:20;;;;;;;;;;;;;;;21.95;54.68;100662.63;5035825;28;6195;-63
2022/09/13 01:15:46;;;;;;;;;;;;;;;21.95;54.68;100676.31;5034399;28;4323;-64
2022/09/13 01:18:13;;;;;;;;;;;;;;;21.97;54.51;100664.84;5035167;28;5230;-64
2022/09/13 01:20:48;;;;;;;;;;;;;;;21.96;54.40;100680.66;5036328;28;4149;-63
2022/09/13 01:23:20;;;;;;;;;;;;;;;21.96;54.58;100664.09;5024726;28;5318;-64
2022/09/13 01:25:49;;;;;;;;;;;;;;;21.96;54.69;100663.34;5029998;28;5267;-63
2022/09/13 01:28:34;;;;;;;;;;;;;;;21.96;54.44;100666.25;5048260;28;4118;-64
2022/09/13 01:31:01;;;;;;;;;;;;;;;21.95;54.48;100665.50;5026488;28;4231;-63
2022/09/13 01:33:31;;;;;;;;;;;;;;;21.94;54.51;100661.16;5032262;28;4470;-64
2022/09/13 01:36:03;;;;;;;;;;;;;;;21.95;54.30;100661.88;5047079;28;5662;-63
2022/09/13 01:38:49;;;;;;;;;;;;;;;21.93;54.41;100644.53;5043423;28;4362;-64
2022/09/13 01:41:34;;;;;;;;;;;;;;;21.93;54.27;100644.53;5039140;28;4159;-64
2022/09/13 01:44:20;;;;;;;;;;;;;;;21.93;54.41;100641.63;5033954;28;4023;-64
2022/09/13 01:46:48;;;;;;;;;;;;;;;21.93;54.32;100648.13;5028198;28;4294;-63
2022/09/13 01:49:19;;;;;;;;;;;;;;;21.93;54.34;100641.63;5032527;28;4124;-64
2022/09/13 01:51:50;;;;;;;;;;;;;;;21.93;54.38;100639.47;5035760;28;4151;-63
2022/09/13 01:54:17;;;;;;;;;;;;;;;21.91;54.28;100638.69;5036540;28;4089;-63
2022/09/13 01:56:58;;;;;;;;;;;;;;;21.91;54.27;100636.53;5035740;28;5775;-63
2022/09/13 01:59:43;;;;;;;;;;;;;;;21.91;54.25;100627.16;5046949;28;4156;-64
2022/09/13 02:02:09;;;;;;;;;;;;;;;21.90;54.24;100619.91;5016742;28;4198;-63
2022/09/13 02:04:37;;;;;;;;;;;;;;;21.91;54.22;100615.63;5013640;28;4196;-64
2022/09/13 02:07:15;;;;;;;;;;;;;;;21.90;54.18;100619.91;5027527;28;4203;-64
2022/09/13 02:09:43;;;;;;;;;;;;;;;21.89;54.18;100624.19;5024652;28;4558;-64
2022/09/13 02:12:12;;;;;;;;;;;;;;;21.90;54.18;100614.16;5045849;28;5285;-63
2022/09/13 02:14:39;;;;;;;;;;;;;;;21.89;54.00;100612.66;5044167;28;5289;-64
2022/09/13 02:17:06;;;;;;;;;;;;;;;21.87;54.14;100593.13;5044700;28;5450;-64
2022/09/13 02:19:34;;;;;;;;;;;;;;;21.89;54.01;100589.59;5039962;28;5482;-64
2022/09/13 02:22:01;;;;;;;;;;;;;;;21.89;54.10;100596.09;5014881;28;4175;-63
2022/09/13 02:24:38;;;;;;;;;;;;;;;21.88;54.15;100599.66;5043182;28;4070;-63
2022/09/13 02:27:07;;;;;;;;;;;;;;;21.89;53.94;100589.59;5029242;28;4398;-63
2022/09/13 02:29:33;;;;;;;;;;;;;;;21.87;54.14;100580.88;5013436;28;4131;-63
2022/09/13 02:32:02;;;;;;;;;;;;;;;21.84;54.10;100579.34;5024840;28;4188;-63
2022/09/13 02:34:42;;;;;;;;;;;;;;;21.84;54.18;100570.69;5044695;28;4070;-64
2022/09/13 02:37:09;;;;;;;;;;;;;;;21.84;54.11;100576.44;5033723;28;4196;-63
2022/09/13 02:39:36;;;;;;;;;;;;;;;21.84;54.04;100565.66;5047312;28;5248;-64
2022/09/13 02:42:05;;;;;;;;;;;;;;;21.83;54.19;100574.94;5032358;28;5474;-63
2022/09/13 02:44:41;;;;;;;;;;;;;;;21.84;54.02;100570.69;5048051;28;4221;-64
2022/09/13 02:47:10;;;;;;;;;;;;;;;21.82;54.15;100573.50;5047790;28;5421;-64
2022/09/13 02:49:55;;;;;;;;;;;;;;;21.82;54.02;100562.69;5049065;28;4020;-64
2022/09/13 02:52:30;;;;;;;;;;;;;;;21.85;54.08;100563.50;5035272;28;4180;-64
2022/09/13 02:54:59;;;;;;;;;;;;;;;21.81;53.88;100549.69;5047929;28;4108;-63
2022/09/13 02:57:30;;;;;;;;;;;;;;;21.83;54.12;100546.88;5033765;28;4174;-64
2022/09/13 02:59:56;;;;;;;;;;;;;;;21.83;54.05;100546.13;5049029;28;5278;-64
2022/09/13 03:02:24;;;;;;;;;;;;;;;21.80;54.24;100533.06;5037133;28;5495;-63
2022/09/13 03:04:50;;;;;;;;;;;;;;;21.81;54.07;100525.91;5049503;28;4197;-64
2022/09/13 03:07:16;;;;;;;;;;;;;;;21.81;53.82;100531.69;5035526;28;5410;-63
2022/09/13 03:09:52;;;;;;;;;;;;;;;21.83;53.97;100534.59;5036275;28;5086;-64
2022/09/13 03:12:18;;;;;;;;;;;;;;;21.80;53.91;100524.41;5039383;28;4231;-63
2022/09/13 03:14:44;;;;;;;;;;;;;;;21.80;54.16;100518.66;5035776;28;4231;-63
2022/09/13 03:17:16;;;;;;;;;;;;;;;21.80;53.86;100518.66;5038907;28;4168;-63
2022/09/13 03:19:55;;;;;;;;;;;;;;;21.80;53.82;100515.78;5035600;28;4236;-63
2022/09/13 03:22:41;;;;;;;;;;;;;;;21.80;54.21;100510.00;5053074;28;5376;-63
2022/09/13 03:25:26;;;;;;;;;;;;;;;21.78;54.03;100509.94;5034743;28;5104;-63
2022/09/13 03:28:11;;;;;;;;;;;;;;;21.77;53.83;100508.47;5035054;28;4149;-64
2022/09/13 03:30:38;;;;;;;;;;;;;;;21.78;54.22;100504.16;5031329;28;4308;-63
2022/09/13 03:33:16;;;;;;;;;;;;;;;21.75;53.84;100503.38;5032966;28;5736;-63
2022/09/13 03:35:51;;;;;;;;;;;;;;;21.78;54.03;100512.81;5034771;28;4206;-63
2022/09/13 03:38:21;;;;;;;;;;;;;;;21.77;54.05;100509.19;5053273;28;4143;-63
2022/09/13 03:40:51;;;;;;;;;;;;;;;21.78;53.90;100509.94;5036109;28;4181;-63
2022/09/13 03:43:19;;;;;;;;;;;;;;;21.77;53.76;100503.44;5033742;28;4791;-63
2022/09/13 03:45:47;;;;;;;;;;;;;;;21.78;53.80;100504.16;5033477;28;4253;-63
2022/09/13 03:48:13;;;;;;;;;;;;;;;21.74;53.83;100504.78;5048529;28;4230;-63
2022/09/13 03:50:40;;;;;;;;;;;;;;;21.75;54.03;100506.97;5035164;28;4207;-63
2022/09/13 03:53:07;;;;;;;;;;;;;;;21.75;53.78;100501.22;5029218;28;4030;-63
2022/09/13 03:55:34;;;;;;;;;;;;;;;21.75;53.85;100492.56;5033397;28;4419;-63
2022/09/13 03:58:00;;;;;;;;;;;;;;;21.75;54.10;100491.84;5044732;28;4430;-64
2022/09/13 04:00:26;;;;;;;;;;;;;;;21.74;53.95;100479.56;5034682;28;4089;-63
2022/09/13 04:02:54;;;;;;;;;;;;;;;21.73;53.92;100480.22;5029756;28;4154;-64
2022/09/13 04:05:20;;;;;;;;;;;;;;;21.73;53.82;100480.97;5036211;28;4332;-63
2022/09/13 04:07:47;;;;;;;;;;;;;;;21.73;53.61;100478.09;5033568;28;4280;-63
2022/09/13 04:10:13;;;;;;;;;;;;;;;21.73;54.06;100486.72;5036118;28;4221;-64
2022/09/13 04:12:40;;;;;;;;;;;;;;;21.71;53.91;100478.00;5033119;28;4162;-63
2022/09/13 04:15:07;;;;;;;;;;;;;;;21.71;53.96;100478.00;5034539;28;4250;-64
2022/09/13 04:17:33;;;;;;;;;;;;;;;21.72;53.77;100470.84;5034292;28;4182;-63
2022/09/13 04:19:59;;;;;;;;;;;;;;;21.60;53.71;100467.56;5035626;28;5320;-61
2022/09/13 04:22:26;;;;;;;;;;;;;;;21.55;53.58;100465.91;5034169;28;4242;-61
2022/09/13 04:24:52;;;;;;;;;;;;;;;21.62;53.56;100456.09;5035406;28;4218;-63
2022/09/13 04:27:18;;;;;;;;;;;;;;;21.68;53.60;100453.41;5033132;28;4026;-62
2022/09/13 04:29:45;;;;;;;;;;;;;;;21.69;53.72;100462.81;5034404;28;4021;-62
2022/09/13 04:32:11;;;;;;;;;;;;;;;21.71;53.62;100448.47;5035533;28;4182;-62
2022/09/13 04:34:37;;;;;;;;;;;;;;;21.69;53.67;100457.78;5035848;28;4263;-61
2022/09/13 04:37:03;;;;;;;;;;;;;;;21.69;53.50;100446.28;5032537;28;4138;-62
2022/09/13 04:39:30;;;;;;;;;;;;;;;21.68;53.67;100444.78;5031526;28;4335;-62
2022/09/13 04:41:56;;;;;;;;;;;;;;;21.66;53.74;100438.94;5035153;28;5271;-62
2022/09/13 04:44:23;;;;;;;;;;;;;;;21.64;54.03;100444.63;5035562;28;4248;-62
2022/09/13 04:46:49;;;;;;;;;;;;;;;21.68;53.81;100444.78;5028837;28;4211;-63
2022/09/13 04:49:16;;;;;;;;;;;;;;;21.70;53.61;100450.63;5035061;28;4334;-61
2022/09/13 04:51:42;;;;;;;;;;;;;;;21.73;53.97;100437.00;5031900;28;4433;-61
2022/09/13 04:54:09;;;;;;;;;;;;;;;21.73;53.89;100423.34;5030909;28;4180;-61
2022/09/13 04:56:41;;;;;;;;;;;;;;;21.76;54.13;100424.13;5033007;28;5307;-55
2022/09/13 04:59:07;;;;;;;;;;;;;;;21.85;54.66;100425.16;5035217;28;4186;-59
2022/09/13 05:01:33;;;;;;;;;;;;;;;21.84;54.30;100426.56;5036162;28;4110;-59
2022/09/13 05:04:00;;;;;;;;;;;;;;;21.80;54.60;100423.53;5031435;28;4032;-60
2022/09/13 05:06:27;;;;;;;;;;;;;;;21.80;54.55;100414.91;5034925;28;4166;-59
2022/09/13 05:08:54;;;;;;;;;;;;;;;21.80;54.83;100414.91;5033020;28;4162;-59
2022/09/13 05:11:21;;;;;;;;;;;;;;;21.81;54.95;100416.38;5030460;28;4237;-59
2022/09/13 05:13:51;;;;;;;;;;;;;;;21.81;54.74;100404.84;5036092;28;4238;-59
2022/09/13 05:16:18;;;;;;;;;;;;;;;21.81;54.94;100394.06;5032983;28;5077;-59
2022/09/13 05:18:44;;;;;;;;;;;;;;;21.81;55.16;100391.19;5033377;28;4320;-59
2022/09/13 05:21:10;;;;;;;;;;;;;;;21.84;54.92;100403.50;5024229;28;4347;-59
2022/09/13 05:23:37;;;;;;;;;;;;;;;21.84;55.16;100410.00;5027266;28;4036;-59
2022/09/13 05:26:04;;;;;;;;;;;;;;;21.88;54.93;100406.53;5033378;28;4066;-59
2022/09/13 05:28:31;;;;;;;;;;;;;;;21.88;55.42;100409.41;5036092;28;4245;-59
2022/09/13 05:30:58;;;;;;;;;;;;;;;21.88;55.13;100406.53;5037159;28;4122;-60
2022/09/13 05:33:25;;;;;;;;;;;;;;;21.83;56.81;100410.66;5035028;28;4242;-59
2022/09/13 05:35:51;;;;;;;;;;;;;;;21.84;57.25;100415.03;5034702;28;4366;-59
2022/09/13 05:38:17;;;;;;;;;;;;;;;21.87;56.96;100420.19;5032173;28;5208;-58
2022/09/13 05:40:44;;;;;;;;;;;;;;;21.84;57.42;100415.03;5032838;28;4051;-59
2022/09/13 05:43:10;;;;;;;;;;;;;;;21.88;57.23;100426.72;5035713;28;4176;-59
2022/09/13 05:45:36;;;;;;;;;;;;;;;21.99;57.50;100434.28;5027590;28;4075;-66
2022/09/13 05:48:03;;;;;;;;;;;;;;;22.13;58.21;100440.50;5032620;28;4530;-65
2022/09/13 05:50:29;;;;;;;;;;;;;;;22.19;58.07;100431.31;5030213;28;4085;-66
2022/09/13 05:53:16;;;;;;;;;;;;;;;22.03;57.56;100428.63;5015819;28;4313;-62
2022/09/13 05:55:42;;;;;;;;;;;;;;;22.05;56.61;100437.34;5033695;28;5094;-62
2022/09/13 05:58:08;;;;;;;;;;;;;;;22.12;56.44;100444.78;5035354;28;4309;-63
2022/09/13 06:00:35;;;;;;;;;;;;;;;22.23;56.92;100427.84;5033951;28;4163;-64
2022/09/13 06:03:01;;;;;;;;;;;;;;;22.21;56.71;100436.41;5037080;28;4165;-64
2022/09/13 06:05:27;;;;;;;;;;;;;;;22.24;56.13;100437.97;5030951;28;4194;-62
2022/09/13 06:07:57;;;;;;;;;;;;;;;22.27;56.42;100440.25;5033369;28;4484;-63
2022/09/13 06:10:24;;;;;;;;;;;;;;;22.31;56.11;100442.50;5039889;28;4239;-62
2022/09/13 06:12:50;;;;;;;;;;;;;;;22.31;57.17;100448.28;5036016;28;5545;-65
2022/09/13 06:15:16;;;;;;;;;;;;;;;22.39;56.71;100457.22;5037799;28;5696;-63
2022/09/13 06:17:43;;;;;;;;;;;;;;;22.36;56.74;100453.53;5034665;28;5780;-67
2022/09/13 06:20:09;;;;;;;;;;;;;;;22.38;56.65;100447.09;5031167;28;4195;-65
2022/09/13 06:22:36;;;;;;;;;;;;;;;22.44;56.57;100440.75;5031479;28;4479;-65
2022/09/13 06:25:02;;;;;;;;;;;;;;;22.51;56.55;100453.97;5036517;28;4203;-66
2022/09/13 06:27:29;;;;;;;;;;;;;;;22.59;56.37;100451.34;5036327;28;4209;-65
2022/09/13 06:29:55;;;;;;;;;;;;;;;22.67;56.24;100445.06;5036292;28;4176;-65
2022/09/13 06:32:22;;;;;;;;;;;;;;;22.69;56.15;100445.13;5036897;28;4169;-66
2022/09/13 06:34:48;;;;;;;;;;;;;;;22.72;55.59;100440.88;5036389;28;5209;-65
2022/09/13 06:37:15;;;;;;;;;;;;;;;22.58;55.88;100441.19;5040273;28;4204;-64
2022/09/13 06:39:41;;;;;;;;;;;;;;;22.59;56.11;100425.38;5030821;28;4264;-67
2022/09/13 06:42:08;;;;;;;;;;;;;;;22.38;56.64;100435.56;5038990;28;4196;-64
2022/09/13 06:45:02;;;;;;;;;;;;;;;22.61;56.38;100427.56;5041224;28;4203;-64
2022/09/13 06:48:08;;;;;;;;;;;;;;;22.60;55.81;100415.28;5033864;28;5268;-63
2022/09/13 06:50:35;;;;;;;;;;;;;;;22.54;56.04;100406.44;5039349;28;4534;-64
2022/09/13 06:53:01;;;;;;;;;;;;;;;22.63;55.78;100410.31;5038689;28;4232;-62
2022/09/13 06:55:27;;;;;;;;;;;;;;;22.63;55.66;100404.53;5039319;28;4091;-63
2022/09/13 06:57:54;;;;;;;;;;;;;;;22.62;56.31;100397.31;5032921;28;5650;-64
2022/09/13 07:00:20;;;;;;;;;;;;;;;22.58;55.92;100395.75;5038702;28;4630;-67
2022/09/13 07:02:50;;;;;;;;;;;;;;;22.63;55.81;100395.88;5041224;28;4199;-63
2022/09/13 07:05:17;;;;;;;;;;;;;;;22.61;55.82;100402.34;5042352;28;5633;-65
2022/09/13 07:07:44;;;;;;;;;;;;;;;22.64;55.70;100394.47;5042537;28;4228;-62
2022/09/13 07:10:10;;;;;;;;;;;;;;;22.68;55.40;100392.44;5041572;28;4277;-63
2022/09/13 07:12:38;;;;;;;;;;;;;;;22.68;55.61;100386.69;5029855;28;4499;-65
2022/09/13 07:15:05;;;;;;;;;;;;;;;22.83;55.41;100387.81;5021340;28;4147;-63
2022/09/13 07:17:31;;;;;;;;;;;;;;;22.83;55.12;100389.97;5019416;28;5264;-71
2022/09/13 07:19:57;;;;;;;;;;;;;;;22.78;55.47;100384.06;5020560;28;5594;-69
2022/09/13 07:22:26;;;;;;;;;;;;;;;22.84;55.58;100392.19;5023492;28;5650;-70
2022/09/13 07:24:53;;;;;;;;;;;;;;;22.80;55.23;100380.53;5020425;28;5719;-67
2022/09/13 07:27:19;;;;;;;;;;;;;;;22.83;55.25;100378.44;5021976;28;5627;-69
2022/09/13 07:29:45;;;;;;;;;;;;;;;22.81;55.43;100373.31;5020464;28;5590;-66
2022/09/13 07:32:12;;;;;;;;;;;;;;;22.78;55.67;100380.47;5021761;28;4168;-65
2022/09/13 07:34:38;;;;;;;;;;;;;;;22.77;55.33;100381.88;5021840;28;4227;-66
2022/09/13 07:37:04;;;;;;;;;;;;;;;22.83;55.37;100379.16;5021983;28;4693;-68
2022/09/13 07:39:31;;;;;;;;;;;;;;;22.93;55.41;100388.13;5017504;28;4156;-66
2022/09/13 07:41:57;;;;;;;;;;;;;;;23.00;55.17;100386.91;5018560;28;6127;-65
2022/09/13 07:44:23;;;;;;;;;;;;;;;23.03;55.03;100384.06;5020487;28;4199;-66
2022/09/13 07:46:50;;;;;;;;;;;;;;;23.00;55.33;100381.13;5019265;28;4201;-66
2022/09/13 07:49:16;;;;;;;;;;;;;;;22.87;55.21;100390.09;5017570;28;4186;-69
2022/09/13 07:51:43;;;;;;;;;;;;;;;22.74;55.60;100389.00;5022463;28;5280;-72
2022/09/13 07:54:10;;;;;;;;;;;;;;;22.67;55.87;100396.00;5021664;28;5267;-65
2022/09/13 07:56:37;;;;;;;;;;;;;;;22.78;55.67;100400.66;5023542;28;5316;-63
2022/09/13 07:59:04;;;;;;;;;;;;;;;22.74;55.59;100395.50;5020303;28;4167;-63
2022/09/13 08:01:34;;;;;;;;;;;;;;;22.77;55.57;100388.38;5020964;28;4312;-63
2022/09/13 08:04:01;;;;;;;;;;;;;;;22.79;55.51;100384.81;5020583;28;4349;-63
2022/09/13 08:06:28;;;;;;;;;;;;;;;22.32;57.11;100387.03;5022935;28;5240;-66
2022/09/13 08:08:54;;;;;;;;;;;;;;;22.77;56.26;100379.00;5021763;28;5601;-63
2022/09/13 08:11:23;;;;;;;;;;;;;;;22.77;55.83;100381.88;5022880;28;4034;-64
2022/09/13 08:13:49;;;;;;;;;;;;;;;22.88;55.42;100383.63;5019526;28;5363;-63
2022/09/13 08:16:16;;;;;;;;;;;;;;;22.76;56.20;100386.91;5021531;28;4336;-68
2022/09/13 08:18:43;;;;;;;;;;;;;;;22.90;56.25;100388.72;5019830;28;4067;-66
2022/09/13 08:21:09;;;;;;;;;;;;;;;22.77;56.16;100387.66;5022337;28;4192;-64
2022/09/13 08:23:35;;;;;;;;;;;;;;;22.75;56.38;100393.38;5021858;28;4137;-66
2022/09/13 08:26:02;;;;;;;;;;;;;;;22.73;56.14;100399.09;5021386;28;4193;-65
2022/09/13 08:28:30;;;;;;;;;;;;;;;22.64;56.16;100415.41;5010712;28;4631;-65
2022/09/13 08:31:01;;;;;;;;;;;;;;;22.53;56.73;100417.25;5019744;28;5501;-66
2022/09/13 08:33:28;;;;;;;;;;;;;;;22.52;57.05;100410.03;5019352;28;4176;-65
2022/09/13 08:35:55;;;;;;;;;;;;;;;22.48;57.17;100404.13;5014369;28;5636;-65
2022/09/13 08:38:21;;;;;;;;;;;;;;;22.49;57.35;100399.06;5019096;28;4508;-64
2022/09/13 08:41:06;;;;;;;;;;;;;;;22.49;57.02;100396.94;5019686;28;4149;-64
2022/09/13 08:43:38;;;;;;;;;;;;;;;22.50;56.99;100395.53;5040505;28;5361;-64
2022/09/13 08:46:08;;;;;;;;;;;;;;;22.49;57.03;100405.59;5036971;28;5275;-60
2022/09/13 08:48:34;;;;;;;;;;;;;;;22.49;57.11;100396.19;5022849;28;4193;-60
2022/09/13 08:51:06;;;;;;;;;;;;;;;22.37;57.55;100399.44;5046832;28;5075;-60
2022/09/13 08:53:37;;;;;;;;;;;;;;;22.27;58.21;100397.00;5019532;28;5264;-66
2022/09/13 08:56:03;;;;;;;;;;;;;;;22.41;58.71;100387.31;5009641;28;4605;-65
2022/09/13 08:58:43;;;;;;;;;;;;;;;22.52;57.93;100381.16;5018983;28;4161;-65
2022/09/13 09:01:21;;;;;;;;;;;;;;;22.62;57.78;100377.09;5019129;28;4027;-63
2022/09/13 09:03:48;;;;;;;;;;;;;;;22.69;57.11;100370.09;5017140;28;4407;-65
2022/09/13 09:06:15;;;;;;;;;;;;;;;22.72;56.95;100362.97;5046448;28;4658;-64
2022/09/13 09:08:45;;;;;;;;;;;;;;;22.98;56.85;100360.09;5020679;28;4140;-66
2022/09/13 09:11:30;;;;;;;;;;;;;;;23.18;56.34;100359.91;5015975;28;4505;-65
2022/09/13 09:13:59;;;;;;;;;;;;;;;23.20;56.20;100357.09;5018924;28;4569;-65
2022/09/13 09:16:34;;;;;;;;;;;;;;;22.97;56.99;100368.00;5052925;28;4044;-65
2022/09/13 09:19:05;;;;;;;;;;;;;;;23.14;56.38;100368.50;5021106;28;4584;-63
2022/09/13 09:21:32;;;;;;;;;;;;;;;22.93;56.55;100382.34;5020512;28;4720;-65
2022/09/13 09:23:58;;;;;;;;;;;;;;;22.96;56.60;100372.31;5019399;28;4226;-67
2022/09/13 09:26:27;;;;;;;;;;;;;;;23.14;56.37;100371.38;5019605;28;5622;-65
2022/09/13 09:28:55;;;;;;;;;;;;;;;23.07;56.80;100378.41;5012861;28;4618;-66
2022/09/13 09:31:31;;;;;;;;;;;;;;;23.27;55.62;100384.00;5051871;28;4083;-66
2022/09/13 09:34:13;;;;;;;;;;;;;;;23.32;55.56;100380.53;5020220;28;4931;-67
2022/09/13 09:36:42;;;;;;;;;;;;;;;23.07;55.53;100384.19;5050781;28;4385;-63
2022/09/13 09:39:10;;;;;;;;;;;;;;;22.73;57.22;100388.25;5021433;28;5759;-65
2022/09/13 09:41:37;;;;;;;;;;;;;;;22.92;57.09;100366.41;5020518;28;5581;-65
2022/09/13 09:44:15;;;;;;;;;;;;;;;23.04;56.32;100371.81;5018170;28;5498;-64
2022/09/13 09:46:41;;;;;;;;;;;;;;;23.09;56.28;100369.78;5017655;28;5211;-64
2022/09/13 09:52:05;;;;;;;;;;;;;;;22.93;56.72;100365.03;5020439;28;6005;-63
2022/09/13 09:54:32;;;;;;;;;;;;;;;22.97;56.60;100370.88;5020589;28;4177;-62
2022/09/13 09:56:58;;;;;;;;;;;;;;;23.05;56.51;100370.41;5019501;28;5553;-67
2022/09/13 09:59:26;;;;;;;;;;;;;;;23.09;56.46;100369.78;5017236;28;4507;-64
2022/09/13 10:01:55;;;;;;;;;;;;;;;23.08;56.28;100362.56;5018764;28;4599;-67
2022/09/13 10:04:22;;;;;;;;;;;;;;;23.16;56.39;100357.72;5015221;28;5414;-66
2022/09/13 10:06:48;;;;;;;;;;;;;;;23.23;56.00;100361.53;5019246;28;4681;-66
2022/09/13 10:09:15;;;;;;;;;;;;;;;23.23;56.21;100355.00;5017383;28;5631;-66
2022/09/13 10:11:46;;;;;;;;;;;;;;;23.29;56.00;100358.03;5025074;28;4031;-65
2022/09/13 10:14:28;;;;;;;;;;;;;;;23.30;55.80;100354.50;5020214;28;4608;-64
2022/09/13 10:17:02;;;;;;;;;;;;;;;23.36;56.00;100359.69;5023649;28;5610;-66
2022/09/13 10:19:29;;;;;;;;;;;;;;;23.31;55.61;100350.16;5025828;28;5435;-67
2022/09/13 10:21:59;;;;;;;;;;;;;;;23.29;56.03;100361.66;5020470;28;4268;-73
2022/09/13 10:24:25;;;;;;;;;;;;;;;23.32;56.04;100345.13;5037023;28;4579;-73
2022/09/13 10:26:51;;;;;;;;;;;;;;;23.31;55.65;100353.06;5016916;28;4569;-81
2022/09/13 10:29:18;;;;;;;;;;;;;;;23.20;55.90;100345.53;5038640;28;5748;-80
2022/09/13 10:31:45;;;;;;;;;;;;;;;23.16;56.29;100354.13;5043281;28;4011;-79
2022/09/13 10:34:12;;;;;;;;;;;;;;;23.24;56.30;100347.81;5054763;28;5555;-74
2022/09/13 10:36:42;;;;;;;;;;;;;;;22.96;56.97;100339.81;5029689;28;5279;-77
2022/09/13 10:39:24;;;;;;;;;;;;;;;22.80;57.35;100331.44;5059953;28;4181;-72
2022/09/13 10:41:55;;;;;;;;;;;;;;;22.78;57.30;100337.16;5059228;28;4337;-74
2022/09/13 10:44:32;;;;;;;;;;;;;;;22.75;57.66;100332.75;5036912;28;4109;-73
2022/09/13 10:47:00;;;;;;;;;;;;;;;22.84;57.88;100340.22;5021702;28;4273;-72
2022/09/13 10:49:36;;;;;;;;;;;;;;;23.07;57.46;100332.22;5037896;28;4540;-70
2022/09/13 10:52:21;;;;;;;;;;;;;;;23.11;57.37;100338.84;5044826;28;5258;-72
2022/09/13 10:54:47;;;;;;;;;;;;;;;23.16;57.43;100333.91;5036934;28;5251;-72
2022/09/13 10:57:31;;;;;;;;;;;;;;;23.10;56.91;100333.72;5039625;28;4213;-71
2022/09/13 10:59:58;;;;;;;;;;;;;;;23.15;57.09;100338.19;5045019;28;4211;-75
2022/09/13 11:02:45;;;;;;;;;;;;;;;23.31;56.72;100349.44;5033367;28;4587;-70
2022/09/13 11:05:17;;;;;;;;;;;;;;;23.22;56.67;100354.25;5043558;28;4170;-71
2022/09/13 11:08:02;;;;;;;;;;;;;;;23.25;56.49;100347.13;5063033;28;4570;-70
2022/09/13 11:10:34;;;;;;;;;;;;;;;23.14;56.76;100348.28;5043696;28;4140;-71
2022/09/13 11:13:06;;;;;;;;;;;;;;;23.23;56.79;100349.22;5043368;28;4190;-71
2022/09/13 11:15:35;;;;;;;;;;;;;;;23.16;56.97;100345.44;5044109;28;4014;-72
2022/09/13 11:18:08;;;;;;;;;;;;;;;23.25;56.77;100347.13;5040117;28;5567;-72
2022/09/13 11:20:40;;;;;;;;;;;;;;;23.27;56.51;100344.28;5045220;28;4233;-71
2022/09/13 11:23:18;;;;;;;;;;;;;;;23.27;56.33;100350.06;5039993;28;4130;-71
2022/09/13 11:25:55;;;;;;;;;;;;;;;23.37;56.28;100341.66;5032230;28;5573;-73
2022/09/13 11:28:31;;;;;;;;;;;;;;;23.57;55.77;100341.44;5050004;28;4967;-73
2022/09/13 11:31:03;;;;;;;;;;;;;;;23.57;55.91;100343.59;5023267;28;4314;-76
2022/09/13 11:33:30;;;;;;;;;;;;;;;23.33;56.45;100346.59;5013870;28;4384;-72
2022/09/13 11:36:09;;;;;;;;;;;;;;;23.38;56.36;100351.06;5019341;28;5326;-71
2022/09/13 11:38:42;;;;;;;;;;;;;;;23.31;56.70;100344.38;5016372;28;4611;-73
2022/09/13 11:41:27;;;;;;;;;;;;;;;23.47;56.53;100338.28;5019479;28;4188;-71
2022/09/13 11:43:53;;;;;;;;;;;;;;;23.54;56.13;100330.50;5035516;28;4366;-69
2022/09/13 11:46:31;;;;;;;;;;;;;;;23.47;55.97;100331.78;5043233;28;4260;-70
2022/09/13 11:49:17;;;;;;;;;;;;;;;23.36;56.70;100330.78;5051231;28;5292;-67
2022/09/13 11:51:52;;;;;;;;;;;;;;;23.71;55.77;100338.19;5031178;28;6256;-73
2022/09/13 11:54:31;;;;;;;;;;;;;;;23.42;56.17;100333.84;5032975;28;5470;-69
2022/09/13 11:56:59;;;;;;;;;;;;;;;23.55;56.50;100337.78;5051291;28;4256;-67
2022/09/13 11:59:34;;;;;;;;;;;;;;;23.81;55.91;100323.25;5041196;28;5356;-67
2022/09/13 12:02:23;;;;;;;;;;;;;;;23.74;55.75;100331.03;5032752;28;4205;-66
2022/09/13 12:04:54;;;;;;;;;;;;;;;23.54;56.45;100330.50;5031112;28;4365;-71
2022/09/13 12:07:45;;;;;;;;;;;;;;;23.29;58.63;100327.00;5043895;28;4329;-67
2022/09/13 12:10:14;;;;;;;;;;;;;;;23.30;58.60;100328.50;5034707;28;4192;-70
2022/09/13 12:12:41;;;;;;;;;;;;;;;23.16;58.19;100331.00;5033601;28;4182;-64
2022/09/13 12:15:40;;;;;;;;;;;;;;;;;;;;;
2022/09/13 12:18:40;;;;;;;;;;;;;;;22.92;58.69;100328.88;4963080;28;4326;-69
2022/09/13 12:21:08;;;;;;;;;;;;;;;22.88;59.37;100322.28;5009776;28;4216;-69
2022/09/13 12:23:49;;;;;;;;;;;;;;;22.86;59.32;100325.84;5014458;28;4074;-68
2022/09/13 12:26:25;;;;;;;;;;;;;;;22.91;58.95;100330.31;5026601;28;4393;-67
2022/09/13 12:28:53;;;;;;;;;;;;;;;22.80;59.72;100322.78;5042008;28;4053;-67
2022/09/13 12:31:21;;;;;;;;;;;;;;;22.82;60.46;100319.97;5038308;28;4122;-68
2022/09/13 12:33:47;;;;;;;;;;;;;;;22.82;60.35;100325.00;5039342;28;3998;-68
2022/09/13 12:36:18;;;;;;;;;;;;;;;22.84;60.34;100327.94;5034183;28;4379;-68
2022/09/13 12:38:54;;;;;;;;;;;;;;;22.74;60.45;100328.38;5054794;28;4231;-67
2022/09/13 12:41:34;;;;;;;;;;;;;;;22.76;60.74;100328.44;5045361;28;4180;-66
2022/09/13 12:44:22;;;;;;;;;;;;;;;22.71;61.24;100323.97;5046145;28;4543;-65
2022/09/13 12:47:08;;;;;;;;;;;;;;;22.73;61.05;100330.53;5029362;28;4177;-66
2022/09/13 12:49:37;;;;;;;;;;;;;;;22.76;61.56;100329.19;5053019;28;4051;-66
2022/09/13 12:52:06;;;;;;;;;;;;;;;22.76;61.21;100317.63;5030502;28;4507;-66
2022/09/13 12:54:41;;;;;;;;;;;;;;;22.67;61.33;100326.75;5049098;28;4218;-65
2022/09/13 12:57:10;;;;;;;;;;;;;;;22.87;61.56;100315.78;5035130;28;4938;-64
2022/09/13 12:59:49;;;;;;;;;;;;;;;23.28;61.16;100316.16;5031973;28;4114;-73
2022/09/13 13:02:35;;;;;;;;;;;;;;;23.60;59.62;100322.72;5033858;28;4198;-71
2022/09/13 13:05:03;;;;;;;;;;;;;;;23.70;59.41;100325.13;5024932;28;4665;-71
2022/09/13 13:07:29;;;;;;;;;;;;;;;23.76;58.84;100316.63;5034079;28;4163;-72